createdAt,value
2018-09-09T00:06:38.096Z,99.99
2018-09-09T00:16:38.100Z,99.99
2018-09-09T00:26:38.071Z,99.99
2018-09-09T00:36:38.136Z,99.99
2018-09-09T00:46:38.097Z,99.99
2018-09-09T00:56:38.095Z,99.99
2018-09-09T01:06:38.098Z,99.99
2018-09-09T01:16:38.097Z,99.99
2018-09-09T01:26:38.108Z,99.99
2018-09-09T01:36:38.094Z,99.99
2018-09-09T01:46:38.071Z,99.99
2018-09-09T01:56:38.055Z,99.99
2018-09-09T02:06:38.074Z,99.99
2018-09-09T02:16:38.080Z,99.99
2018-09-09T02:26:38.078Z,99.99
2018-09-09T02:36:38.081Z,99.99
2018-09-09T02:46:38.070Z,99.99
2018-09-09T02:56:38.078Z,99.99
2018-09-09T03:06:38.159Z,99.99
2018-09-09T03:16:38.101Z,99.99
2018-09-09T03:26:38.060Z,99.99
2018-09-09T03:36:38.083Z,99.99
2018-09-09T03:46:38.071Z,99.99
2018-09-09T03:56:38.075Z,99.99
2018-09-09T04:06:38.173Z,99.99
2018-09-09T04:16:38.088Z,99.99
2018-09-09T04:26:38.089Z,99.99
2018-09-09T04:36:38.067Z,99.99
2018-09-09T04:46:38.062Z,99.99
2018-09-09T04:56:38.048Z,99.99
2018-09-09T05:06:38.068Z,99.99
2018-09-09T05:16:38.075Z,99.99
2018-09-09T05:28:03.923Z,99.99
2018-09-09T05:38:03.926Z,99.99
2018-09-09T05:48:03.932Z,99.99
2018-09-09T05:58:03.941Z,99.99
2018-09-09T06:08:03.908Z,99.99
2018-09-09T06:18:03.962Z,99.99
2018-09-09T06:28:04.036Z,99.99
2018-09-09T06:38:03.920Z,99.99
2018-09-09T06:48:04.148Z,99.99
2018-09-09T06:58:04.290Z,99.99
2018-09-09T07:08:03.924Z,99.99
2018-09-09T07:18:03.933Z,98.72
2018-09-09T07:28:03.936Z,91.9
2018-09-09T07:38:03.918Z,93.1
2018-09-09T07:48:04.025Z,94.15
2018-09-09T07:58:03.948Z,94.98
2018-09-09T08:08:03.956Z,96.03
2018-09-09T08:18:03.971Z,92.71
2018-09-09T08:28:03.965Z,88.81
2018-09-09T08:38:04.004Z,87.46
2018-09-09T08:48:04.172Z,84.81
2018-09-09T08:58:04.093Z,82.01
2018-09-09T09:08:03.976Z,81.47
2018-09-09T09:18:03.951Z,80.22
2018-09-09T09:28:04.150Z,77.55
2018-09-09T09:38:04.201Z,77.94
2018-09-09T09:48:04.014Z,76.1
2018-09-09T09:58:04.033Z,78.13
2018-09-09T10:08:03.976Z,77.61
2018-09-09T10:18:03.956Z,75.82
2018-09-09T10:28:03.981Z,74.99
2018-09-09T10:38:04.065Z,72.61
2018-09-09T10:48:03.970Z,74
2018-09-09T10:58:04.007Z,72.71
2018-09-09T11:08:03.995Z,72.67
2018-09-09T11:18:04.021Z,71.03
2018-09-09T11:28:04.058Z,69.65
2018-09-09T11:38:03.984Z,68.68
2018-09-09T11:48:03.960Z,68.49
2018-09-09T11:58:04.007Z,69.84
2018-09-09T12:08:04.095Z,70.48
2018-09-09T12:18:03.971Z,71.97
2018-09-09T12:28:04.042Z,71.55
2018-09-09T12:38:04.031Z,70.2
2018-09-09T12:48:03.984Z,67.49
2018-09-09T12:58:03.999Z,69.9
2018-09-09T13:08:04.099Z,69.17
2018-09-09T13:18:04.010Z,67.85
2018-09-09T13:28:04.042Z,67.56
2018-09-09T13:38:04.037Z,67.49
2018-09-09T13:48:04.138Z,66.91
2018-09-09T13:58:04.021Z,68.66
2018-09-09T14:08:04.045Z,67.11
2018-09-09T14:18:04.004Z,66.4
2018-09-09T14:28:04.121Z,67.43
2018-09-09T14:38:04.036Z,67.69
2018-09-09T14:48:04.228Z,68.49
2018-09-09T14:58:03.990Z,68.69
2018-09-09T15:08:04.035Z,66.95
2018-09-09T15:18:04.108Z,66.95
2018-09-09T15:28:04.045Z,66.85
2018-09-09T15:38:04.097Z,66.6
2018-09-09T15:48:04.062Z,67.18
2018-09-09T15:58:04.111Z,67.53
2018-09-09T16:08:04.052Z,67.63
2018-09-09T16:18:04.025Z,69.24
2018-09-09T16:28:04.051Z,71.42
2018-09-09T16:38:04.056Z,72.8
2018-09-09T16:48:04.096Z,74.21
2018-09-09T16:58:04.043Z,74.69
2018-09-09T17:08:04.037Z,76.36
2018-09-09T17:18:04.036Z,76.84
2018-09-09T17:28:04.100Z,77.42
2018-09-09T17:38:04.081Z,78.44
2018-09-09T17:48:04.065Z,78.73
2018-09-09T17:58:04.060Z,79.66
2018-09-09T18:08:04.045Z,81.16
2018-09-09T18:18:04.147Z,82.89
2018-09-09T18:28:04.069Z,84.19
2018-09-09T18:38:04.098Z,86.46
2018-09-09T18:48:04.169Z,89.21
2018-09-09T18:58:04.144Z,91.85
2018-09-09T19:08:04.051Z,95.65
2018-09-09T19:18:04.098Z,98.19
2018-09-09T19:28:04.077Z,99.87
2018-09-09T19:38:04.096Z,99.99
2018-09-09T19:48:04.049Z,99.99
2018-09-09T19:58:04.046Z,99.99
2018-09-09T20:08:04.062Z,99.99
2018-09-09T20:18:05.210Z,99.99
2018-09-09T20:29:32.929Z,99.99
2018-09-09T20:39:32.903Z,99.99
2018-09-09T20:49:32.905Z,99.99
2018-09-09T20:59:32.886Z,99.99
2018-09-09T21:09:33.707Z,99.99
2018-09-09T21:19:32.882Z,99.99
2018-09-09T21:29:32.890Z,99.99
2018-09-09T21:39:32.988Z,99.99
2018-09-09T21:49:32.882Z,99.99
2018-09-09T21:59:32.898Z,99.99
2018-09-09T22:09:32.921Z,99.99
2018-09-09T22:19:32.882Z,99.99
2018-09-09T22:29:32.917Z,99.99
2018-09-09T22:39:32.889Z,99.99
2018-09-09T22:49:32.886Z,99.99
2018-09-09T22:59:32.876Z,99.99
2018-09-09T23:09:32.898Z,99.99
2018-09-09T23:19:32.898Z,99.99
2018-09-09T23:29:32.882Z,99.99
2018-09-09T23:39:32.914Z,99.99
2018-09-09T23:49:32.908Z,99.99
2018-09-09T23:59:33.031Z,99.99
